Time;durP1;ratioP1;P1;durP2;ratioP2;P2;SDS_P1;SDS_P2;PMS_P1;PMS_P2;Temp;Humidity;BMP_temperature;BMP_pressure;BME280_temperature;BME280_humidity;BME280_pressure;Samples;Min_cycle;Max_cycle;Signal;HPM_P1;HPM_P2
2023/11/22 00:02:20;;;;;;;12.90;7.53;;;;;;;;;;5095130;28;20190;-82
2023/11/22 00:04:47;;;;;;;10.63;7.93;;;;;;;;;;5094857;28;20222;-82
2023/11/22 00:07:14;;;;;;;9.30;7.33;;;;;;;;;;5094585;28;20257;-81
2023/11/22 00:09:42;;;;;;;8.57;7.67;;;;;;;;;;5094499;28;20230;-82
2023/11/22 00:12:09;;;;;;;9.43;7.50;;;;;;;;;;5094579;28;20187;-81
2023/11/22 00:14:36;;;;;;;9.93;7.23;;;;;;;;;;5094569;28;20194;-83
2023/11/22 00:17:04;;;;;;;8.00;7.20;;;;;;;;;;5094456;28;20226;-81
2023/11/22 00:19:33;;;;;;;8.93;6.90;;;;;;;;;;5094162;28;20639;-82
2023/11/22 00:22:03;;;;;;;7.80;6.77;;;;;;;;;;5094823;28;20191;-82
2023/11/22 00:24:30;;;;;;;8.97;7.30;;;;;;;;;;5093857;28;20242;-81
2023/11/22 00:26:57;;;;;;;8.27;6.70;;;;;;;;;;5094505;28;20681;-82
2023/11/22 00:29:24;;;;;;;10.83;6.77;;;;;;;;;;5094492;28;20194;-82
2023/11/22 00:31:51;;;;;;;8.70;7.00;;;;;;;;;;5094364;28;20694;-82
2023/11/22 00:34:19;;;;;;;10.60;6.53;;;;;;;;;;5093785;28;20640;-82
2023/11/22 00:36:48;;;;;;;7.30;6.10;;;;;;;;;;5094112;28;20210;-82
2023/11/22 00:39:16;;;;;;;7.30;6.37;;;;;;;;;;5093891;28;20198;-82
2023/11/22 00:41:44;;;;;;;11.63;6.43;;;;;;;;;;5094199;28;20634;-81
2023/11/22 00:44:11;;;;;;;8.63;6.17;;;;;;;;;;5094190;28;20234;-82
2023/11/22 00:46:38;;;;;;;9.17;5.60;;;;;;;;;;5094014;28;20286;-82
2023/11/22 00:49:05;;;;;;;9.83;6.43;;;;;;;;;;5093591;28;20281;-82
2023/11/22 00:51:33;;;;;;;6.33;5.70;;;;;;;;;;5093975;28;20708;-82
2023/11/22 00:54:01;;;;;;;7.00;5.77;;;;;;;;;;5093682;28;20197;-81
2023/11/22 00:56:28;;;;;;;6.93;5.27;;;;;;;;;;5093057;28;20750;-82
2023/11/22 00:58:59;;;;;;;6.50;5.40;;;;;;;;;;5093780;28;20251;-81
2023/11/22 01:01:26;;;;;;;7.93;6.70;;;;;;;;;;5094279;28;20201;-82
2023/11/22 01:03:54;;;;;;;8.23;6.33;;;;;;;;;;5093170;28;20656;-82
2023/11/22 01:06:23;;;;;;;7.90;5.70;;;;;;;;;;5093353;28;20290;-81
2023/11/22 01:08:50;;;;;;;9.33;5.87;;;;;;;;;;5093563;28;20559;-82
2023/11/22 01:11:19;;;;;;;8.80;6.00;;;;;;;;;;5093473;28;20692;-82
2023/11/22 01:13:46;;;;;;;8.73;5.90;;;;;;;;;;5093700;28;20659;-82
2023/11/22 01:16:13;;;;;;;8.20;6.03;;;;;;;;;;5093627;28;20281;-82
2023/11/22 01:18:41;;;;;;;6.93;5.80;;;;;;;;;;5093434;28;20251;-82
2023/11/22 01:21:08;;;;;;;7.90;5.10;;;;;;;;;;5093428;28;20207;-81
2023/11/22 01:23:36;;;;;;;7.10;4.80;;;;;;;;;;5093128;28;20310;-80
2023/11/22 01:26:05;;;;;;;6.30;3.53;;;;;;;;;;5093317;28;20226;-82
2023/11/22 01:28:34;;;;;;;5.67;3.20;;;;;;;;;;5093129;28;20206;-81
2023/11/22 01:31:02;;;;;;;6.30;2.93;;;;;;;;;;5093778;28;20210;-80
2023/11/22 01:33:29;;;;;;;3.20;2.10;;;;;;;;;;5092909;28;20210;-81
2023/11/22 01:35:56;;;;;;;3.80;2.00;;;;;;;;;;5092894;28;20232;-81
2023/11/22 01:38:24;;;;;;;3.03;1.77;;;;;;;;;;5092952;28;20201;-82
2023/11/22 01:40:53;;;;;;;4.50;1.63;;;;;;;;;;5092856;28;20593;-81
2023/11/22 01:43:20;;;;;;;4.13;1.30;;;;;;;;;;5092707;28;20591;-82
2023/11/22 01:45:48;;;;;;;4.33;1.53;;;;;;;;;;5092846;28;20235;-81
2023/11/22 01:48:16;;;;;;;6.57;1.40;;;;;;;;;;5092949;28;20210;-81
2023/11/22 01:50:44;;;;;;;3.57;1.30;;;;;;;;;;5092622;28;20290;-81
2023/11/22 01:53:14;;;;;;;5.30;1.60;;;;;;;;;;5092637;28;20281;-81
2023/11/22 01:55:41;;;;;;;7.50;1.60;;;;;;;;;;5092773;28;20293;-80
2023/11/22 01:58:08;;;;;;;3.73;1.60;;;;;;;;;;5093179;28;20219;-81
2023/11/22 02:00:38;;;;;;;5.23;1.57;;;;;;;;;;5092047;28;20558;-82
2023/11/22 02:03:06;;;;;;;3.27;1.53;;;;;;;;;;5092649;28;20209;-82
2023/11/22 02:05:34;;;;;;;5.97;1.60;;;;;;;;;;5092311;28;20625;-82
2023/11/22 02:08:01;;;;;;;5.57;1.50;;;;;;;;;;5091481;28;20228;-82
2023/11/22 02:10:29;;;;;;;7.07;1.30;;;;;;;;;;5092708;28;20297;-82
2023/11/22 02:12:56;;;;;;;3.37;1.37;;;;;;;;;;5092370;28;20218;-81
2023/11/22 02:15:24;;;;;;;3.57;1.40;;;;;;;;;;5092332;28;20226;-82
2023/11/22 02:17:51;;;;;;;8.80;2.07;;;;;;;;;;5092194;28;20286;-82
2023/11/22 02:20:20;;;;;;;3.30;1.47;;;;;;;;;;5092325;28;20276;-82
2023/11/22 02:22:47;;;;;;;5.03;1.83;;;;;;;;;;5092039;28;20226;-82
2023/11/22 02:25:16;;;;;;;5.03;1.67;;;;;;;;;;5091970;28;20281;-82
2023/11/22 02:27:43;;;;;;;7.50;1.83;;;;;;;;;;5091670;28;20198;-81
2023/11/22 02:30:11;;;;;;;7.17;2.10;;;;;;;;;;5091634;28;20207;-82
2023/11/22 02:32:39;;;;;;;7.93;1.60;;;;;;;;;;5092394;28;20286;-81
2023/11/22 02:35:07;;;;;;;4.13;1.30;;;;;;;;;;5091808;28;20285;-82
2023/11/22 02:37:35;;;;;;;4.97;1.50;;;;;;;;;;5091864;28;20191;-81
2023/11/22 02:40:06;;;;;;;5.60;1.60;;;;;;;;;;5092378;28;20281;-80
2023/11/22 02:42:35;;;;;;;4.13;1.27;;;;;;;;;;5091895;28;20252;-82
2023/11/22 02:45:02;;;;;;;4.93;1.43;;;;;;;;;;5091408;28;20286;-81
2023/11/22 02:47:30;;;;;;;6.63;1.40;;;;;;;;;;5092221;28;20198;-82
2023/11/22 02:49:57;;;;;;;6.80;1.80;;;;;;;;;;5091690;28;20282;-81
2023/11/22 02:52:26;;;;;;;5.67;1.90;;;;;;;;;;5091862;28;20219;-82
2023/11/22 02:54:53;;;;;;;6.73;1.70;;;;;;;;;;5091224;28;20198;-82
2023/11/22 02:57:20;;;;;;;4.13;1.40;;;;;;;;;;5091874;28;20230;-82
2023/11/22 02:59:49;;;;;;;7.70;1.60;;;;;;;;;;5091300;28;20680;-82
2023/11/22 03:02:17;;;;;;;6.63;1.63;;;;;;;;;;5091511;28;20244;-80
2023/11/22 03:04:44;;;;;;;3.20;1.20;;;;;;;;;;5091569;28;20222;-81
2023/11/22 03:07:12;;;;;;;5.57;1.37;;;;;;;;;;5091624;28;20248;-81
2023/11/22 03:09:41;;;;;;;11.23;1.57;;;;;;;;;;5091700;28;20194;-81
2023/11/22 03:12:08;;;;;;;7.43;1.40;;;;;;;;;;5091729;28;20626;-82
2023/11/22 03:14:36;;;;;;;7.90;1.30;;;;;;;;;;5090685;28;20716;-81
2023/11/22 03:17:05;;;;;;;6.90;1.40;;;;;;;;;;5091733;28;20745;-82
2023/11/22 03:19:33;;;;;;;5.50;1.60;;;;;;;;;;5091142;28;20230;-82
2023/11/22 03:22:02;;;;;;;5.57;1.83;;;;;;;;;;5076281;28;20278;-81
2023/11/22 03:24:30;;;;;;;4.83;1.50;;;;;;;;;;5070878;28;20266;-82
2023/11/22 03:26:58;;;;;;;4.73;1.40;;;;;;;;;;5071149;28;20195;-81
2023/11/22 03:29:26;;;;;;;5.40;1.37;;;;;;;;;;5070796;28;20285;-82
2023/11/22 03:31:53;;;;;;;4.03;1.23;;;;;;;;;;5071041;28;20286;-81
2023/11/22 03:34:22;;;;;;;2.97;1.47;;;;;;;;;;5073451;28;20289;-81
2023/11/22 03:36:48;;;;;;;4.30;1.50;;;;;;;;;;5091117;28;20222;-81
2023/11/22 03:39:16;;;;;;;6.70;1.20;;;;;;;;;;5091124;28;20202;-81
2023/11/22 03:41:44;;;;;;;5.67;1.40;;;;;;;;;;5091368;28;20655;-81
2023/11/22 03:44:11;;;;;;;5.07;1.20;;;;;;;;;;5090536;28;20752;-82
2023/11/22 03:46:39;;;;;;;5.20;1.20;;;;;;;;;;5090838;28;20273;-81
2023/11/22 03:49:07;;;;;;;5.43;1.30;;;;;;;;;;5083571;28;20229;-81
2023/11/22 03:51:35;;;;;;;4.77;1.00;;;;;;;;;;5091251;28;20200;-81
2023/11/22 03:54:03;;;;;;;4.03;1.03;;;;;;;;;;5090714;28;20293;-81
2023/11/22 03:56:30;;;;;;;6.80;0.90;;;;;;;;;;5090800;28;20297;-81
2023/11/22 03:58:58;;;;;;;5.73;1.03;;;;;;;;;;5090596;28;20277;-82
2023/11/22 04:01:25;;;;;;;4.63;1.10;;;;;;;;;;5090945;28;20199;-81
2023/11/22 04:03:53;;;;;;;5.17;1.40;;;;;;;;;;5090897;28;20233;-82
2023/11/22 04:06:21;;;;;;;6.00;1.17;;;;;;;;;;5091383;28;20272;-81
2023/11/22 04:08:49;;;;;;;3.63;1.07;;;;;;;;;;5090793;28;20226;-82
2023/11/22 04:11:17;;;;;;;3.17;1.07;;;;;;;;;;5091073;28;20226;-80
2023/11/22 04:13:45;;;;;;;4.60;1.40;;;;;;;;;;5090550;28;20678;-81
2023/11/22 04:16:12;;;;;;;5.87;1.33;;;;;;;;;;5090847;28;20217;-81
2023/11/22 04:18:40;;;;;;;3.83;1.00;;;;;;;;;;5091074;28;20310;-81
2023/11/22 04:21:07;;;;;;;7.80;1.20;;;;;;;;;;5090843;28;20191;-82
2023/11/22 04:23:34;;;;;;;3.67;1.13;;;;;;;;;;5090621;28;20285;-81
2023/11/22 04:26:03;;;;;;;5.30;1.40;;;;;;;;;;5090197;28;20662;-82
2023/11/22 04:28:29;;;;;;;5.80;1.40;;;;;;;;;;5090735;28;20286;-82
2023/11/22 04:30:57;;;;;;;4.60;1.40;;;;;;;;;;5092869;28;20206;-82
2023/11/22 04:33:24;;;;;;;6.50;1.37;;;;;;;;;;5094688;28;20199;-82
2023/11/22 04:35:52;;;;;;;5.73;1.50;;;;;;;;;;5093720;28;20286;-81
2023/11/22 04:38:19;;;;;;;5.17;1.60;;;;;;;;;;5094226;28;20286;-82
2023/11/22 04:40:46;;;;;;;6.23;1.70;;;;;;;;;;5093680;28;20233;-82
2023/11/22 04:43:15;;;;;;;4.80;1.70;;;;;;;;;;5094140;28;20285;-82
2023/11/22 04:45:43;;;;;;;7.07;1.40;;;;;;;;;;5094098;28;20309;-82
2023/11/22 04:48:10;;;;;;;3.27;1.30;;;;;;;;;;5094545;28;20190;-82
2023/11/22 04:50:37;;;;;;;5.70;1.57;;;;;;;;;;5094264;28;20194;-80
2023/11/22 04:53:04;;;;;;;5.53;1.60;;;;;;;;;;5094002;28;20285;-82
2023/11/22 04:55:32;;;;;;;7.23;2.03;;;;;;;;;;5093991;28;20230;-81
2023/11/22 04:57:59;;;;;;;6.70;2.27;;;;;;;;;;5093790;28;20191;-81
2023/11/22 05:00:27;;;;;;;6.23;1.40;;;;;;;;;;5093730;28;20218;-82
2023/11/22 05:02:55;;;;;;;5.30;1.60;;;;;;;;;;5093974;28;20281;-81
2023/11/22 05:05:22;;;;;;;6.03;2.03;;;;;;;;;;5093699;28;20325;-81
2023/11/22 05:07:50;;;;;;;3.30;1.60;;;;;;;;;;5093989;28;20206;-82
2023/11/22 05:10:17;;;;;;;6.23;1.90;;;;;;;;;;5093254;28;20252;-81
2023/11/22 05:12:45;;;;;;;5.50;2.00;;;;;;;;;;5093687;28;20199;-81
2023/11/22 05:15:14;;;;;;;6.27;2.00;;;;;;;;;;5093424;28;20209;-81
2023/11/22 05:17:42;;;;;;;6.23;2.10;;;;;;;;;;5093589;28;20278;-80
2023/11/22 05:20:10;;;;;;;8.70;2.37;;;;;;;;;;5093780;28;20233;-83
2023/11/22 05:22:37;;;;;;;6.60;2.60;;;;;;;;;;5092777;28;20667;-81
2023/11/22 05:25:06;;;;;;;9.47;2.30;;;;;;;;;;5092761;28;20265;-81
2023/11/22 05:27:33;;;;;;;7.40;2.00;;;;;;;;;;5093368;28;20202;-81
2023/11/22 05:30:01;;;;;;;8.23;2.40;;;;;;;;;;5093419;28;20754;-81
2023/11/22 05:32:28;;;;;;;6.80;2.20;;;;;;;;;;5093396;28;20263;-80
2023/11/22 05:34:57;;;;;;;8.13;1.87;;;;;;;;;;5093052;28;20265;-82
2023/11/22 05:37:24;;;;;;;7.03;2.60;;;;;;;;;;5092656;28;20686;-82
2023/11/22 05:39:51;;;;;;;10.23;2.20;;;;;;;;;;5093165;28;20195;-81
2023/11/22 05:42:19;;;;;;;8.57;2.03;;;;;;;;;;5092481;28;20286;-79
2023/11/22 05:44:46;;;;;;;9.00;2.27;;;;;;;;;;5092598;28;20234;-81
2023/11/22 05:47:13;;;;;;;8.67;1.90;;;;;;;;;;5093124;28;20194;-80
2023/11/22 05:49:41;;;;;;;7.93;2.03;;;;;;;;;;5092779;28;20195;-80
2023/11/22 05:52:09;;;;;;;4.87;1.77;;;;;;;;;;5092933;28;20282;-81
2023/11/22 05:54:38;;;;;;;7.67;1.70;;;;;;;;;;5091480;28;20286;-79
2023/11/22 05:57:05;;;;;;;6.30;2.20;;;;;;;;;;5092210;28;20206;-82
2023/11/22 05:59:32;;;;;;;8.90;2.10;;;;;;;;;;5089947;28;20234;-82
2023/11/22 06:02:00;;;;;;;6.50;2.03;;;;;;;;;;5088504;28;20233;-82
2023/11/22 06:04:27;;;;;;;8.10;1.90;;;;;;;;;;5088945;28;20289;-82
2023/11/22 06:06:54;;;;;;;6.20;1.87;;;;;;;;;;5088217;28;20290;-83
2023/11/22 06:09:24;;;;;;;9.20;2.57;;;;;;;;;;5085268;28;20289;-82
2023/11/22 06:11:51;;;;;;;6.17;2.07;;;;;;;;;;5091712;28;20281;-82
2023/11/22 06:14:20;;;;;;;8.87;2.30;;;;;;;;;;5074257;28;20645;-83
2023/11/22 06:16:47;;;;;;;8.77;2.10;;;;;;;;;;5083671;28;20199;-83
2023/11/22 06:19:14;;;;;;;7.27;1.90;;;;;;;;;;5092033;28;20281;-81
2023/11/22 06:21:41;;;;;;;9.13;1.83;;;;;;;;;;5092419;28;20225;-82
2023/11/22 06:24:11;;;;;;;8.00;2.07;;;;;;;;;;5091785;28;20285;-82
2023/11/22 06:26:39;;;;;;;8.57;1.80;;;;;;;;;;5091732;28;20256;-82
2023/11/22 06:29:08;;;;;;;7.30;2.27;;;;;;;;;;5092049;28;20281;-82
2023/11/22 06:31:35;;;;;;;8.50;2.20;;;;;;;;;;5091787;28;20670;-82
2023/11/22 06:34:02;;;;;;;5.97;1.97;;;;;;;;;;5090997;28;20708;-82
2023/11/22 06:36:30;;;;;;;7.07;2.10;;;;;;;;;;5092066;28;20670;-82
2023/11/22 06:38:57;;;;;;;9.33;1.80;;;;;;;;;;5092096;28;20209;-83
2023/11/22 06:41:25;;;;;;;8.77;2.10;;;;;;;;;;5091357;28;20198;-82
2023/11/22 06:43:57;;;;;;;7.70;2.27;;;;;;;;;;5091559;28;20242;-82
2023/11/22 06:46:25;;;;;;;6.63;1.73;;;;;;;;;;5091503;28;20222;-81
2023/11/22 06:48:52;;;;;;;5.40;1.90;;;;;;;;;;5092309;28;20317;-83
2023/11/22 06:51:21;;;;;;;9.83;2.17;;;;;;;;;;5091636;28;20202;-81
2023/11/22 06:53:48;;;;;;;9.23;2.60;;;;;;;;;;5091617;28;20285;-85
2023/11/22 06:56:15;;;;;;;8.97;2.00;;;;;;;;;;5090846;28;20285;-82
2023/11/22 06:58:42;;;;;;;10.33;2.23;;;;;;;;;;5085602;28;20630;-84
2023/11/22 07:01:11;;;;;;;7.70;2.40;;;;;;;;;;5075002;28;20249;-84
2023/11/22 07:03:38;;;;;;;5.90;2.47;;;;;;;;;;5071724;28;20675;-84
2023/11/22 07:06:06;;;;;;;6.23;2.13;;;;;;;;;;5085602;28;20270;-85
2023/11/22 07:08:34;;;;;;;5.00;2.13;;;;;;;;;;5091772;28;20752;-84
2023/11/22 07:11:03;;;;;;;8.60;2.60;;;;;;;;;;5091822;28;20202;-84
2023/11/22 07:13:31;;;;;;;9.37;2.07;;;;;;;;;;5082287;28;20725;-85
2023/11/22 07:16:00;;;;;;;5.40;2.40;;;;;;;;;;5075934;28;20286;-84
2023/11/22 07:18:28;;;;;;;5.10;2.20;;;;;;;;;;5088825;28;20195;-84
2023/11/22 07:20:55;;;;;;;9.60;2.53;;;;;;;;;;5073034;28;20231;-83
2023/11/22 07:23:27;;;;;;;7.53;2.20;;;;;;;;;;5085169;28;20229;-84
2023/11/22 07:25:55;;;;;;;10.07;2.37;;;;;;;;;;5091125;28;20230;-84
2023/11/22 07:28:22;;;;;;;8.33;2.40;;;;;;;;;;5091573;28;20289;-84
2023/11/22 07:30:49;;;;;;;13.33;2.60;;;;;;;;;;5075696;28;20253;-84
2023/11/22 07:33:17;;;;;;;9.47;2.67;;;;;;;;;;5071661;28;20198;-85
2023/11/22 07:35:46;;;;;;;6.60;2.20;;;;;;;;;;5085143;28;20558;-84
2023/11/22 07:38:14;;;;;;;10.07;2.50;;;;;;;;;;5091930;28;20190;-84
2023/11/22 07:40:42;;;;;;;7.80;2.50;;;;;;;;;;5091067;28;20190;-83
2023/11/22 07:43:09;;;;;;;10.07;2.90;;;;;;;;;;5092138;28;20198;-84
2023/11/22 07:45:37;;;;;;;6.57;2.73;;;;;;;;;;5091480;28;20786;-84
2023/11/22 07:48:05;;;;;;;13.00;2.50;;;;;;;;;;5091417;28;20277;-84
2023/11/22 07:50:32;;;;;;;7.07;2.50;;;;;;;;;;5091207;28;20895;-84
2023/11/22 07:53:02;;;;;;;6.67;2.43;;;;;;;;;;5092093;28;20202;-84
2023/11/22 07:55:30;;;;;;;9.63;2.47;;;;;;;;;;5091597;28;20209;-84
2023/11/22 07:57:57;;;;;;;8.47;2.53;;;;;;;;;;5091397;28;20199;-83
2023/11/22 08:00:25;;;;;;;9.40;2.20;;;;;;;;;;5091274;28;20230;-84
2023/11/22 08:02:54;;;;;;;6.17;2.53;;;;;;;;;;5091271;28;20203;-84
2023/11/22 08:05:23;;;;;;;11.97;2.70;;;;;;;;;;5092613;28;20321;-84
2023/11/22 08:07:50;;;;;;;8.67;2.80;;;;;;;;;;5095488;28;20289;-83
2023/11/22 08:10:19;;;;;;;6.13;1.97;;;;;;;;;;5095293;28;20623;-84
2023/11/22 08:12:47;;;;;;;8.00;2.70;;;;;;;;;;5095729;28;20203;-84
2023/11/22 08:15:15;;;;;;;9.43;2.23;;;;;;;;;;5094931;28;20640;-84
2023/11/22 08:17:42;;;;;;;9.40;2.70;;;;;;;;;;5095321;28;20191;-82
2023/11/22 08:20:13;;;;;;;6.67;2.50;;;;;;;;;;5094728;28;20222;-84
2023/11/22 08:22:40;;;;;;;5.30;2.07;;;;;;;;;;5095262;28;20575;-84
2023/11/22 08:25:08;;;;;;;7.40;2.10;;;;;;;;;;5095208;28;20672;-83
2023/11/22 08:27:37;;;;;;;10.43;2.40;;;;;;;;;;5094697;28;20274;-84
2023/11/22 08:30:05;;;;;;;3.35;1.98;;;;;;;;;;5094920;28;20250;-82
2023/11/22 08:32:32;;;;;;;6.45;2.10;;;;;;;;;;5094789;28;20574;-82
2023/11/22 08:35:00;;;;;;;5.03;1.88;;;;;;;;;;5094565;28;20691;-82
2023/11/22 08:37:27;;;;;;;5.13;2.28;;;;;;;;;;5094452;28;20233;-83
2023/11/22 08:39:54;;;;;;;5.78;1.80;;;;;;;;;;5094378;28;20226;-83
2023/11/22 08:42:23;;;;;;;4.82;1.90;;;;;;;;;;5094816;28;20186;-84
2023/11/22 08:44:51;;;;;;;6.00;2.20;;;;;;;;;;5094387;28;20735;-82
2023/11/22 08:47:19;;;;;;;4.80;2.00;;;;;;;;;;5094000;28;20309;-84
2023/11/22 08:49:48;;;;;;;6.68;2.08;;;;;;;;;;5094607;28;20285;-84
2023/11/22 08:52:15;;;;;;;6.35;1.90;;;;;;;;;;5094240;28;20198;-83
2023/11/22 08:54:42;;;;;;;5.45;2.10;;;;;;;;;;5094403;28;20564;-83
2023/11/22 08:57:09;;;;;;;6.78;2.08;;;;;;;;;;5094170;28;20248;-84
2023/11/22 08:59:38;;;;;;;7.47;1.98;;;;;;;;;;5093964;28;20198;-83
2023/11/22 09:02:08;;;;;;;9.65;2.50;;;;;;;;;;5094353;28;20289;-83
2023/11/22 09:04:37;;;;;;;7.18;2.30;;;;;;;;;;5094210;28;20240;-84
2023/11/22 09:07:05;;;;;;;5.60;2.15;;;;;;;;;;5093713;28;20600;-84
2023/11/22 09:09:34;;;;;;;3.92;2.28;;;;;;;;;;5093976;28;20202;-84
2023/11/22 09:12:01;;;;;;;6.85;2.35;;;;;;;;;;5094111;28;20226;-84
2023/11/22 09:14:29;;;;;;;5.43;2.20;;;;;;;;;;5094396;28;20201;-83
2023/11/22 09:16:56;;;;;;;4.35;2.00;;;;;;;;;;5092779;28;20226;-83
2023/11/22 09:19:25;;;;;;;7.25;2.28;;;;;;;;;;5093877;28;20198;-84
2023/11/22 09:21:52;;;;;;;6.38;2.28;;;;;;;;;;5093587;28;20384;-82
2023/11/22 09:24:20;;;;;;;5.13;2.00;;;;;;;;;;5093886;28;20208;-82
2023/11/22 09:26:47;;;;;;;12.00;2.63;;;;;;;;;;5093660;28;20303;-82
2023/11/22 09:29:14;;;;;;;4.95;2.08;;;;;;;;;;5093486;28;20245;-84
2023/11/22 09:31:42;;;;;;;5.30;2.22;;;;;;;;;;5093317;28;20226;-83
2023/11/22 09:34:10;;;;;;;7.80;2.45;;;;;;;;;;5093622;28;20202;-84
2023/11/22 09:36:39;;;;;;;8.75;2.63;;;;;;;;;;5093453;28;20234;-84
2023/11/22 09:39:08;;;;;;;8.27;2.20;;;;;;;;;;5093091;28;20746;-84
2023/11/22 09:41:35;;;;;;;7.50;2.55;;;;;;;;;;5093082;28;21039;-83
2023/11/22 09:44:04;;;;;;;5.90;2.08;;;;;;;;;;5093120;28;20669;-83
2023/11/22 09:46:34;;;;;;;7.50;2.20;;;;;;;;;;5093001;28;20234;-83
2023/11/22 09:49:02;;;;;;;7.45;2.50;;;;;;;;;;5093695;28;20190;-84
2023/11/22 09:51:32;;;;;;;7.85;2.78;;;;;;;;;;5093186;28;20233;-83
2023/11/22 09:54:04;;;;;;;6.95;2.65;;;;;;;;;;5093014;28;20194;-84
2023/11/22 09:56:32;;;;;;;8.20;2.60;;;;;;;;;;5092522;28;20210;-82
2023/11/22 09:59:00;;;;;;;6.80;2.75;;;;;;;;;;5093334;28;20197;-83
2023/11/22 10:01:30;;;;;;;7.32;2.30;;;;;;;;;;5092652;28;20223;-83
2023/11/22 10:03:58;;;;;;;9.70;2.38;;;;;;;;;;5093028;28;20679;-82
2023/11/22 10:06:26;;;;;;;6.57;2.58;;;;;;;;;;5092653;28;20258;-83
2023/11/22 10:08:53;;;;;;;5.72;2.40;;;;;;;;;;5092919;28;20214;-80
2023/11/22 10:11:22;;;;;;;8.52;2.60;;;;;;;;;;5092916;28;20294;-82
2023/11/22 10:13:49;;;;;;;9.25;2.13;;;;;;;;;;5092626;28;20251;-82
2023/11/22 10:16:18;;;;;;;8.20;2.58;;;;;;;;;;5092324;28;20298;-83
2023/11/22 10:18:46;;;;;;;6.82;2.33;;;;;;;;;;5092600;28;20206;-81
2023/11/22 10:21:23;;;;;;;6.97;2.40;;;;;;;;;;5092670;28;20286;-80
2023/11/22 10:23:52;;;;;;;9.35;2.20;;;;;;;;;;5092194;28;20248;-83
2023/11/22 10:26:19;;;;;;;7.18;2.25;;;;;;;;;;5092260;28;20333;-82
2023/11/22 10:28:51;;;;;;;7.18;2.55;;;;;;;;;;5091685;28;20238;-81
2023/11/22 10:31:19;;;;;;;9.25;2.45;;;;;;;;;;5092494;28;20226;-83
2023/11/22 10:33:46;;;;;;;8.00;2.65;;;;;;;;;;5092331;28;20410;-82
2023/11/22 10:36:14;;;;;;;4.50;2.13;;;;;;;;;;5092342;28;20679;-84
2023/11/22 10:38:42;;;;;;;6.45;2.55;;;;;;;;;;5092127;28;20248;-83
2023/11/22 10:41:10;;;;;;;7.68;2.30;;;;;;;;;;5091851;28;20248;-83
2023/11/22 10:43:37;;;;;;;8.27;2.50;;;;;;;;;;5092563;28;20255;-81
2023/11/22 10:46:09;;;;;;;6.53;3.03;;;;;;;;;;5092078;28;20230;-82
2023/11/22 10:48:37;;;;;;;5.00;2.30;;;;;;;;;;5091886;28;20683;-82
2023/11/22 10:51:05;;;;;;;5.32;2.45;;;;;;;;;;5091738;28;20647;-83
2023/11/22 10:53:38;;;;;;;8.98;2.58;;;;;;;;;;5091995;28;20213;-83
2023/11/22 10:56:06;;;;;;;8.25;2.60;;;;;;;;;;5092337;28;20190;-81
2023/11/22 10:58:35;;;;;;;7.28;2.10;;;;;;;;;;5091223;28;20198;-82
2023/11/22 11:01:06;;;;;;;5.38;2.13;;;;;;;;;;5092221;28;20194;-82
2023/11/22 11:03:40;;;;;;;6.00;2.22;;;;;;;;;;5091806;28;20222;-83
2023/11/22 11:06:09;;;;;;;8.23;2.50;;;;;;;;;;5091713;28;20679;-83
2023/11/22 11:08:39;;;;;;;7.60;2.38;;;;;;;;;;5091883;28;20218;-82
2023/11/22 11:11:07;;;;;;;5.72;2.30;;;;;;;;;;5091779;28;20277;-83
2023/11/22 11:13:34;;;;;;;8.13;2.38;;;;;;;;;;5091778;28;20564;-83
2023/11/22 11:16:01;;;;;;;9.18;2.60;;;;;;;;;;5092207;28;20291;-83
2023/11/22 11:18:29;;;;;;;9.43;3.00;;;;;;;;;;5091524;28;20194;-83
2023/11/22 11:21:00;;;;;;;12.43;3.28;;;;;;;;;;5091261;28;20201;-82
2023/11/22 11:23:28;;;;;;;9.15;3.00;;;;;;;;;;5092140;28;20286;-83
2023/11/22 11:25:55;;;;;;;8.25;2.92;;;;;;;;;;5091256;28;20727;-83
2023/11/22 11:28:25;;;;;;;9.35;2.83;;;;;;;;;;5091422;28;20324;-84
2023/11/22 11:30:53;;;;;;;7.60;2.90;;;;;;;;;;5091408;28;20289;-84
2023/11/22 11:33:21;;;;;;;6.72;2.53;;;;;;;;;;5091774;28;20198;-82
2023/11/22 11:35:49;;;;;;;7.95;2.70;;;;;;;;;;5091257;28;20667;-83
2023/11/22 11:38:21;;;;;;;8.55;3.05;;;;;;;;;;5091485;28;20202;-83
2023/11/22 11:40:48;;;;;;;5.88;2.70;;;;;;;;;;5095809;28;20194;-83
2023/11/22 11:43:16;;;;;;;11.93;2.60;;;;;;;;;;5095244;28;20560;-83
2023/11/22 11:45:46;;;;;;;9.63;2.80;;;;;;;;;;5095797;28;20271;-83
2023/11/22 11:48:15;;;;;;;8.05;2.28;;;;;;;;;;5095568;28;20649;-82
2023/11/22 11:50:42;;;;;;;6.38;2.60;;;;;;;;;;5095765;28;20199;-82
2023/11/22 11:53:10;;;;;;;6.40;2.42;;;;;;;;;;5095587;28;20289;-82
2023/11/22 11:55:38;;;;;;;9.50;2.28;;;;;;;;;;5094770;28;20695;-83
2023/11/22 11:58:09;;;;;;;6.65;2.65;;;;;;;;;;5095341;28;20186;-82
2023/11/22 12:00:40;;;;;;;10.45;2.72;;;;;;;;;;5094181;28;20209;-83
2023/11/22 12:03:09;;;;;;;4.63;2.03;;;;;;;;;;5089424;28;20209;-82
2023/11/22 12:05:38;;;;;;;5.25;2.50;;;;;;;;;;4740081;28;9999780;-84
2023/11/22 12:08:05;;;;;;;7.75;2.17;;;;;;;;;;5095911;28;20218;-84
2023/11/22 12:10:41;;;;;;;6.50;2.55;;;;;;;;;;5101991;28;20249;-83
2023/11/22 12:13:09;;;;;;;7.03;2.20;;;;;;;;;;5094095;28;20202;-84
2023/11/22 12:15:36;;;;;;;6.22;2.30;;;;;;;;;;5094852;28;20603;-84
2023/11/22 12:18:04;;;;;;;5.63;2.42;;;;;;;;;;5095176;28;20202;-84
2023/11/22 12:20:31;;;;;;;6.88;2.70;;;;;;;;;;5094255;28;20243;-83
2023/11/22 12:23:00;;;;;;;5.90;2.25;;;;;;;;;;5093250;28;20210;-83
2023/11/22 12:25:28;;;;;;;5.95;2.60;;;;;;;;;;5084858;28;20238;-84
2023/11/22 12:27:56;;;;;;;7.15;2.47;;;;;;;;;;5089814;28;20317;-83
2023/11/22 12:30:32;;;;;;;9.52;2.25;;;;;;;;;;5089302;28;20580;-83
2023/11/22 12:33:02;;;;;;;4.38;1.98;;;;;;;;;;5084535;28;20202;-84
2023/11/22 12:35:29;;;;;;;9.68;2.80;;;;;;;;;;5090311;28;20210;-84
2023/11/22 12:37:56;;;;;;;4.93;2.38;;;;;;;;;;5093228;28;20248;-83
2023/11/22 12:40:24;;;;;;;5.95;2.33;;;;;;;;;;5089077;28;20264;-83
2023/11/22 12:42:53;;;;;;;5.93;2.25;;;;;;;;;;5085263;28;20283;-83
2023/11/22 12:45:23;;;;;;;7.43;2.50;;;;;;;;;;5088032;28;20592;-83
2023/11/22 12:47:52;;;;;;;16.42;3.25;;;;;;;;;;5090330;28;20236;-83
2023/11/22 12:50:32;;;;;;;9.20;3.00;;;;;;;;;;5089067;28;20201;-83
2023/11/22 12:53:00;;;;;;;4.18;2.00;;;;;;;;;;5087772;28;20230;-84
2023/11/22 12:55:27;;;;;;;8.20;2.25;;;;;;;;;;5091637;28;20207;-83
2023/11/22 12:57:59;;;;;;;9.65;2.65;;;;;;;;;;5090582;28;20226;-83
2023/11/22 13:00:29;;;;;;;6.32;2.40;;;;;;;;;;5074033;28;20227;-83
2023/11/22 13:02:58;;;;;;;6.18;2.22;;;;;;;;;;5093200;28;20634;-83
2023/11/22 13:05:26;;;;;;;11.43;2.60;;;;;;;;;;5092824;28;20662;-83
2023/11/22 13:07:53;;;;;;;9.63;2.28;;;;;;;;;;5093379;28;20248;-77
2023/11/22 13:10:25;;;;;;;9.48;2.55;;;;;;;;;;5078247;28;20677;-78
2023/11/22 13:12:52;;;;;;;8.02;2.55;;;;;;;;;;5083115;28;20618;-77
2023/11/22 13:15:20;;;;;;;5.30;2.30;;;;;;;;;;5075068;28;20202;-77
2023/11/22 13:17:47;;;;;;;8.98;2.63;;;;;;;;;;5089016;28;20201;-77
2023/11/22 13:20:16;;;;;;;8.60;2.95;;;;;;;;;;5088231;28;20198;-77
2023/11/22 13:22:44;;;;;;;9.45;2.53;;;;;;;;;;5072013;28;20199;-76
2023/11/22 13:25:13;;;;;;;7.95;2.80;;;;;;;;;;5079124;28;20736;-77
2023/11/22 13:27:40;;;;;;;10.27;2.83;;;;;;;;;;5092751;28;20229;-76
2023/11/22 13:30:08;;;;;;;8.00;2.63;;;;;;;;;;5088266;28;20191;-78
2023/11/22 13:32:35;;;;;;;10.25;2.42;;;;;;;;;;5073016;28;20678;-78
2023/11/22 13:35:09;;;;;;;5.63;2.22;;;;;;;;;;5081517;28;20195;-78
2023/11/22 13:37:41;;;;;;;5.05;2.20;;;;;;;;;;5092626;28;20662;-78
2023/11/22 13:40:14;;;;;;;12.90;2.83;;;;;;;;;;5093158;28;20207;-78
2023/11/22 13:42:42;;;;;;;6.88;2.40;;;;;;;;;;5093233;28;20199;-77
2023/11/22 13:45:09;;;;;;;7.55;2.40;;;;;;;;;;5093108;28;20195;-77
2023/11/22 13:47:36;;;;;;;11.63;2.10;;;;;;;;;;5092448;28;20312;-78
2023/11/22 13:50:04;;;;;;;7.63;2.60;;;;;;;;;;5093280;28;20220;-77
2023/11/22 13:52:31;;;;;;;8.37;3.00;;;;;;;;;;5092586;28;20293;-77
2023/11/22 13:55:01;;;;;;;9.60;3.10;;;;;;;;;;5092824;28;20246;-77
2023/11/22 13:57:28;;;;;;;16.10;3.40;;;;;;;;;;5092665;28;20368;-77
2023/11/22 13:59:56;;;;;;;7.60;2.80;;;;;;;;;;5092642;28;20731;-77
2023/11/22 14:02:25;;;;;;;9.57;2.63;;;;;;;;;;5080896;28;20226;-78
2023/11/22 14:04:53;;;;;;;9.07;2.77;;;;;;;;;;5090405;28;20713;-77
2023/11/22 14:07:20;;;;;;;14.10;2.60;;;;;;;;;;5087466;28;20219;-77
2023/11/22 14:09:47;;;;;;;5.67;1.90;;;;;;;;;;5079065;28;20218;-78
2023/11/22 14:12:18;;;;;;;12.63;2.40;;;;;;;;;;5084758;28;20281;-78
2023/11/22 14:14:46;;;;;;;7.95;2.42;;;;;;;;;;5087651;28;20186;-77
2023/11/22 14:17:13;;;;;;;6.50;2.20;;;;;;;;;;5084293;28;20206;-78
2023/11/22 14:19:41;;;;;;;9.20;2.30;;;;;;;;;;5073348;28;20294;-77
2023/11/22 14:22:08;;;;;;;6.10;2.60;;;;;;;;;;5081976;28;20213;-76
2023/11/22 14:24:38;;;;;;;6.15;2.00;;;;;;;;;;5078570;28;20257;-77
2023/11/22 14:27:06;;;;;;;10.70;2.67;;;;;;;;;;5088204;28;20252;-77
2023/11/22 14:29:35;;;;;;;10.73;2.95;;;;;;;;;;5086939;28;20244;-78
2023/11/22 14:32:02;;;;;;;8.35;2.38;;;;;;;;;;5081244;28;20226;-78
2023/11/22 14:34:29;;;;;;;7.60;2.13;;;;;;;;;;5089649;28;20291;-77
2023/11/22 14:36:56;;;;;;;7.03;2.47;;;;;;;;;;5090744;28;20194;-77
2023/11/22 14:39:23;;;;;;;6.53;2.00;;;;;;;;;;5086472;28;20222;-77
2023/11/22 14:41:51;;;;;;;7.57;2.17;;;;;;;;;;5091709;28;20243;-78
2023/11/22 14:44:18;;;;;;;7.80;2.30;;;;;;;;;;5088751;28;20606;-77
2023/11/22 14:46:48;;;;;;;7.23;2.20;;;;;;;;;;5090658;28;20298;-76